createdAt,value
2018-08-25T00:00:53.491Z,2.10
2018-08-25T00:03:21.328Z,1.53
2018-08-25T00:05:49.083Z,2.00
2018-08-25T00:08:16.854Z,1.77
2018-08-25T00:10:44.651Z,1.70
2018-08-25T00:13:12.448Z,1.80
2018-08-25T00:15:40.283Z,1.93
2018-08-25T00:18:09.400Z,2.60
2018-08-25T00:20:37.223Z,1.83
2018-08-25T00:23:05.052Z,1.50
2018-08-25T00:25:33.064Z,1.43
2018-08-25T00:28:00.992Z,1.93
2018-08-25T00:30:34.059Z,1.70
2018-08-25T00:33:01.899Z,1.77
2018-08-25T00:35:29.746Z,2.00
2018-08-25T00:37:57.504Z,2.57
2018-08-25T00:40:25.295Z,2.10
2018-08-25T00:42:53.259Z,2.00
2018-08-25T00:45:21.044Z,1.90
2018-08-25T00:47:48.948Z,2.00
2018-08-25T00:50:16.823Z,1.70
2018-08-25T00:52:44.679Z,1.70
2018-08-25T00:55:12.459Z,2.10
2018-08-25T00:57:40.335Z,2.20
2018-08-25T01:00:08.143Z,1.87
2018-08-25T01:02:35.968Z,1.83
2018-08-25T01:05:03.851Z,2.57
2018-08-25T01:07:31.683Z,2.23
2018-08-25T01:09:59.443Z,2.30
2018-08-25T01:12:27.231Z,2.07
2018-08-25T01:14:55.015Z,2.20
2018-08-25T01:17:22.849Z,2.13
2018-08-25T01:19:50.999Z,2.00
2018-08-25T01:22:18.859Z,2.13
2018-08-25T01:24:46.766Z,1.90
2018-08-25T01:27:14.547Z,1.73
2018-08-25T01:29:42.417Z,2.20
2018-08-25T01:32:10.210Z,1.97
2018-08-25T01:34:38.001Z,2.40
2018-08-25T01:37:05.838Z,1.97
2018-08-25T01:39:33.691Z,2.20
2018-08-25T01:42:01.579Z,1.93
2018-08-25T01:44:29.382Z,2.20
2018-08-25T01:46:57.264Z,2.43
2018-08-25T01:49:25.044Z,2.47
2018-08-25T01:51:52.815Z,5.73
2018-08-25T01:54:20.663Z,7.03
2018-08-25T01:56:48.481Z,5.77
2018-08-25T01:59:16.455Z,6.03
2018-08-25T02:01:44.242Z,6.23
2018-08-25T02:04:12.088Z,7.30
2018-08-25T02:06:39.954Z,6.10
2018-08-25T02:09:09.968Z,8.27
2018-08-25T02:11:37.801Z,7.40
2018-08-25T02:14:05.668Z,9.03
2018-08-25T02:16:33.616Z,8.93
2018-08-25T02:19:01.440Z,8.77
2018-08-25T02:21:29.259Z,9.50
2018-08-25T02:23:57.095Z,9.47
2018-08-25T02:26:24.898Z,10.20
2018-08-25T02:28:52.779Z,8.93
2018-08-25T02:31:20.554Z,8.70
2018-08-25T02:33:48.546Z,8.77
2018-08-25T02:36:16.557Z,8.33
2018-08-25T02:38:44.417Z,8.20
2018-08-25T02:41:12.218Z,8.37
2018-08-25T02:43:40.027Z,8.77
2018-08-25T02:46:07.977Z,8.40
2018-08-25T02:48:35.767Z,9.03
2018-08-25T02:51:03.659Z,8.40
2018-08-25T02:53:31.505Z,9.17
2018-08-25T02:55:59.322Z,8.27
2018-08-25T02:58:27.159Z,8.83
2018-08-25T03:00:55.023Z,8.37
2018-08-25T03:03:23.017Z,8.57
2018-08-25T03:05:50.846Z,10.40
2018-08-25T03:08:18.747Z,8.67
2018-08-25T03:10:46.530Z,9.37
2018-08-25T03:13:14.311Z,8.63
2018-08-25T03:15:42.183Z,7.27
2018-08-25T03:18:09.995Z,7.03
2018-08-25T03:20:37.826Z,6.13
2018-08-25T03:23:05.643Z,5.03
2018-08-25T03:25:33.507Z,3.57
2018-08-25T03:28:01.350Z,4.27
2018-08-25T03:30:29.198Z,3.80
2018-08-25T03:32:57.002Z,3.17
2018-08-25T03:35:24.939Z,3.80
2018-08-25T03:37:52.803Z,4.50
2018-08-25T03:40:20.678Z,3.90
2018-08-25T03:42:48.482Z,3.37
2018-08-25T03:45:16.371Z,3.57
2018-08-25T03:47:44.130Z,3.73
2018-08-25T03:50:11.944Z,3.80
2018-08-25T03:52:39.768Z,3.73
2018-08-25T03:55:07.631Z,3.80
2018-08-25T03:57:35.572Z,3.90
2018-08-25T04:00:03.467Z,3.60
2018-08-25T04:02:31.312Z,3.57
2018-08-25T04:04:59.070Z,3.80
2018-08-25T04:07:26.826Z,3.40
2018-08-25T04:09:54.669Z,3.63
2018-08-25T04:12:22.444Z,3.80
2018-08-25T04:14:50.372Z,3.87
2018-08-25T04:17:18.199Z,4.70
2018-08-25T04:19:45.967Z,4.60
2018-08-25T04:22:13.844Z,3.37
2018-08-25T04:24:41.588Z,3.73
2018-08-25T04:27:09.418Z,3.63
2018-08-25T04:29:37.244Z,4.17
2018-08-25T04:32:05.085Z,4.30
2018-08-25T04:34:32.888Z,4.30
2018-08-25T04:37:00.689Z,4.97
2018-08-25T04:39:28.526Z,4.33
2018-08-25T04:41:56.289Z,4.20
2018-08-25T04:44:24.127Z,3.60
2018-08-25T04:46:51.949Z,4.00
2018-08-25T04:49:19.777Z,3.63
2018-08-25T04:51:47.695Z,3.30
2018-08-25T04:54:15.546Z,3.97
2018-08-25T04:56:43.458Z,2.83
2018-08-25T04:59:11.335Z,2.60
2018-08-25T05:01:39.179Z,2.33
2018-08-25T05:04:07.017Z,2.33
2018-08-25T05:06:34.892Z,2.40
2018-08-25T05:09:02.859Z,2.90
2018-08-25T05:11:30.639Z,2.67
2018-08-25T05:13:58.495Z,3.17
2018-08-25T05:16:26.362Z,2.67
2018-08-25T05:18:54.198Z,2.90
2018-08-25T05:21:22.031Z,2.87
2018-08-25T05:23:49.850Z,2.17
2018-08-25T05:26:17.682Z,2.83
2018-08-25T05:28:45.515Z,3.03
2018-08-25T05:31:13.323Z,3.10
2018-08-25T05:33:41.147Z,2.40
2018-08-25T05:36:09.076Z,2.10
2018-08-25T05:38:36.920Z,1.90
2018-08-25T05:41:04.799Z,1.50
2018-08-25T05:43:32.648Z,1.37
2018-08-25T05:46:00.428Z,1.60
2018-08-25T05:48:28.272Z,1.33
2018-08-25T05:50:56.119Z,1.50
2018-08-25T05:53:23.962Z,1.43
2018-08-25T05:55:55.495Z,1.53
2018-08-25T05:58:23.452Z,1.90
2018-08-25T06:00:51.258Z,1.30
2018-08-25T06:03:19.031Z,1.80
2018-08-25T06:05:46.847Z,1.97
2018-08-25T06:08:14.623Z,1.37
2018-08-25T06:10:42.531Z,1.57
2018-08-25T06:13:10.310Z,1.70
2018-08-25T06:15:38.129Z,1.40
2018-08-25T06:18:05.947Z,1.73
2018-08-25T06:20:33.751Z,1.40
2018-08-25T06:23:01.584Z,1.27
2018-08-25T06:25:29.492Z,1.50
2018-08-25T06:27:57.374Z,1.80
2018-08-25T06:30:25.138Z,1.53
2018-08-25T06:32:52.948Z,2.13
2018-08-25T06:35:20.794Z,1.93
2018-08-25T06:37:48.555Z,1.23
2018-08-25T06:40:16.417Z,2.07
2018-08-25T06:42:44.276Z,1.93
2018-08-25T06:45:12.216Z,1.80
2018-08-25T06:47:39.976Z,1.50
2018-08-25T06:50:07.916Z,1.63
2018-08-25T06:52:35.699Z,1.57
2018-08-25T06:55:03.526Z,1.83
2018-08-25T06:57:31.308Z,1.63
2018-08-25T06:59:59.096Z,1.30
2018-08-25T07:02:26.951Z,1.37
2018-08-25T07:04:54.719Z,1.10
2018-08-25T07:07:22.512Z,1.33
2018-08-25T07:09:50.339Z,1.27
2018-08-25T07:12:18.584Z,1.17
2018-08-25T07:14:46.427Z,1.20
2018-08-25T07:17:14.207Z,1.43
2018-08-25T07:19:42.120Z,1.50
2018-08-25T07:22:10.383Z,1.30
2018-08-25T07:24:38.169Z,1.63
2018-08-25T07:27:05.959Z,1.47
2018-08-25T07:29:33.837Z,1.60
2018-08-25T07:32:02.553Z,1.73
2018-08-25T07:34:30.334Z,1.23
2018-08-25T07:36:58.232Z,1.50
2018-08-25T07:39:26.115Z,1.20
2018-08-25T07:41:53.890Z,0.97
2018-08-25T07:44:21.779Z,1.53
2018-08-25T07:46:49.551Z,1.40
2018-08-25T07:49:17.327Z,1.07
2018-08-25T07:51:45.151Z,1.37
2018-08-25T07:54:13.343Z,1.07
2018-08-25T07:56:41.187Z,1.30
2018-08-25T07:59:09.109Z,0.90
2018-08-25T08:01:36.942Z,1.20
2018-08-25T08:04:04.835Z,1.30
2018-08-25T08:06:32.710Z,1.33
2018-08-25T08:09:01.086Z,1.30
2018-08-25T08:11:28.997Z,1.27
2018-08-25T08:13:56.843Z,1.13
2018-08-25T08:16:24.642Z,0.83
2018-08-25T08:18:52.578Z,1.10
2018-08-25T08:21:20.735Z,1.23
2018-08-25T08:23:48.948Z,0.90
2018-08-25T08:26:16.749Z,1.00
2018-08-25T08:28:44.638Z,1.27
2018-08-25T08:31:12.467Z,1.10
2018-08-25T08:33:40.336Z,1.00
2018-08-25T08:36:08.204Z,1.00
2018-08-25T08:38:37.531Z,1.00
2018-08-25T08:41:05.336Z,0.97
2018-08-25T08:43:33.175Z,1.40
2018-08-25T08:46:01.055Z,1.00
2018-08-25T08:48:28.904Z,1.50
2018-08-25T08:50:56.704Z,1.10
2018-08-25T08:53:24.547Z,1.20
2018-08-25T08:55:52.328Z,0.73
2018-08-25T08:58:20.183Z,0.87
2018-08-25T09:00:47.940Z,1.40
2018-08-25T09:03:15.819Z,1.00
2018-08-25T09:05:43.689Z,0.97
2018-08-25T09:08:11.523Z,0.80
2018-08-25T09:10:39.373Z,1.00
2018-08-25T09:13:07.179Z,0.80
2018-08-25T09:15:35.028Z,1.20
2018-08-25T09:18:02.794Z,1.17
2018-08-25T09:20:30.640Z,1.10
2018-08-25T09:22:58.446Z,1.17
2018-08-25T09:25:26.215Z,1.27
2018-08-25T09:27:54.064Z,1.00
2018-08-25T09:30:21.911Z,0.83
2018-08-25T09:32:49.745Z,1.43
2018-08-25T09:35:17.547Z,0.93
2018-08-25T09:37:45.368Z,0.90
2018-08-25T09:40:13.159Z,0.90
2018-08-25T09:42:40.947Z,1.07
2018-08-25T09:45:08.789Z,0.90
2018-08-25T09:47:36.560Z,1.00
2018-08-25T09:50:04.470Z,0.87
2018-08-25T09:52:32.348Z,0.93
2018-08-25T09:55:00.177Z,0.83
2018-08-25T09:57:27.975Z,0.67
2018-08-25T09:59:55.743Z,1.17
2018-08-25T10:02:23.624Z,1.43
2018-08-25T10:04:51.458Z,0.70
2018-08-25T10:07:19.354Z,1.10
2018-08-25T10:09:47.207Z,1.60
2018-08-25T10:12:15.023Z,1.50
2018-08-25T10:14:42.880Z,0.90
2018-08-25T10:17:10.661Z,1.00
2018-08-25T10:19:38.506Z,31.97
2018-08-25T10:22:06.309Z,7.40
2018-08-25T10:24:34.268Z,1.67
2018-08-25T10:27:02.099Z,1.40
2018-08-25T10:29:29.874Z,1.30
2018-08-25T10:31:57.747Z,3.47
2018-08-25T10:34:25.584Z,1.10
2018-08-25T10:36:53.436Z,13.20
2018-08-25T10:39:21.228Z,3.07
2018-08-25T10:41:49.247Z,1.30
2018-08-25T10:44:16.971Z,1.37
2018-08-25T10:46:44.765Z,2.47
2018-08-25T10:49:12.578Z,1.50
2018-08-25T10:51:40.453Z,1.20
2018-08-25T10:54:08.599Z,0.87
2018-08-25T10:56:36.375Z,0.87
2018-08-25T10:59:04.356Z,2.87
2018-08-25T11:01:32.143Z,1.57
2018-08-25T11:03:59.921Z,0.83
2018-08-25T11:06:27.750Z,2.67
2018-08-25T11:08:55.640Z,1.00
2018-08-25T11:11:23.486Z,0.90
2018-08-25T11:13:51.294Z,3.70
2018-08-25T11:16:19.157Z,1.73
2018-08-25T11:18:46.934Z,0.80
2018-08-25T11:21:14.811Z,1.40
2018-08-25T11:23:42.598Z,1.17
2018-08-25T11:26:10.416Z,0.93
2018-08-25T11:28:38.623Z,1.00
2018-08-25T11:31:06.460Z,1.10
2018-08-25T11:33:34.366Z,1.50
2018-08-25T11:36:02.163Z,1.20
2018-08-25T11:38:29.933Z,1.27
2018-08-25T11:40:57.788Z,1.07
2018-08-25T11:43:25.579Z,1.00
2018-08-25T11:45:53.428Z,1.13
2018-08-25T11:48:21.268Z,1.00
2018-08-25T11:50:49.533Z,1.20
2018-08-25T11:53:17.347Z,0.97
2018-08-25T11:55:45.200Z,1.00
2018-08-25T11:58:12.973Z,0.87
2018-08-25T12:00:40.818Z,2.07
2018-08-25T12:03:08.601Z,1.37
2018-08-25T12:05:36.395Z,0.90
2018-08-25T12:08:04.279Z,1.13
2018-08-25T12:10:32.576Z,0.90
2018-08-25T12:13:00.343Z,1.27
2018-08-25T12:15:28.130Z,1.10
2018-08-25T12:17:55.910Z,0.90
2018-08-25T12:20:23.783Z,1.00
2018-08-25T12:22:51.548Z,0.67
2018-08-25T12:25:19.399Z,1.20
2018-08-25T12:27:47.175Z,1.03
2018-08-25T12:30:14.949Z,1.10
2018-08-25T12:32:42.746Z,1.30
2018-08-25T12:35:10.662Z,1.30
2018-08-25T12:37:38.505Z,1.30
2018-08-25T12:40:06.768Z,1.00
2018-08-25T12:42:34.566Z,1.10
2018-08-25T12:45:02.480Z,0.70
2018-08-25T12:47:30.312Z,13.33
2018-08-25T12:49:58.357Z,1.20
2018-08-25T12:52:26.146Z,0.93
2018-08-25T12:54:54.034Z,1.20
2018-08-25T12:57:22.419Z,1.07
2018-08-25T12:59:50.205Z,0.77
2018-08-25T13:02:18.047Z,1.10
2018-08-25T13:04:45.903Z,0.67
2018-08-25T13:07:14.508Z,0.80
2018-08-25T13:09:42.901Z,0.80
2018-08-25T13:12:11.021Z,1.43
2018-08-25T13:14:38.854Z,1.20
2018-08-25T13:17:06.681Z,1.00
2018-08-25T13:19:34.539Z,1.00
2018-08-25T13:22:02.402Z,1.03
2018-08-25T13:24:30.220Z,0.90
2018-08-25T13:26:58.087Z,0.80
2018-08-25T13:29:25.980Z,0.83
2018-08-25T13:31:53.758Z,0.80
2018-08-25T13:34:21.633Z,1.10
2018-08-25T13:36:49.511Z,0.97
2018-08-25T13:39:17.312Z,1.47
2018-08-25T13:41:45.268Z,0.90
2018-08-25T13:44:13.760Z,0.73
2018-08-25T13:46:42.052Z,1.10
2018-08-25T13:49:09.956Z,0.80
2018-08-25T13:51:37.856Z,0.80
2018-08-25T13:54:05.644Z,1.00
2018-08-25T13:56:33.456Z,1.00
2018-08-25T13:59:01.339Z,1.00
2018-08-25T14:01:29.192Z,1.00
2018-08-25T14:03:57.478Z,1.27
2018-08-25T14:06:25.274Z,1.20
2018-08-25T14:08:53.602Z,0.80
2018-08-25T14:11:21.548Z,0.70
2018-08-25T14:13:49.468Z,1.30
2018-08-25T14:16:17.522Z,1.40
2018-08-25T14:18:45.234Z,0.80
2018-08-25T14:21:13.049Z,0.90
2018-08-25T14:23:40.974Z,0.90
2018-08-25T14:26:08.783Z,0.90
2018-08-25T14:28:36.626Z,1.00
2018-08-25T14:31:04.510Z,0.80
2018-08-25T14:33:32.360Z,0.83
2018-08-25T14:36:00.187Z,1.13
2018-08-25T14:38:27.979Z,1.10
2018-08-25T14:40:55.803Z,0.80
2018-08-25T14:43:23.607Z,0.77
2018-08-25T14:45:51.472Z,0.80
2018-08-25T14:48:19.246Z,1.17
2018-08-25T14:50:47.183Z,0.90
2018-08-25T14:53:14.982Z,0.97
2018-08-25T14:55:43.431Z,1.50
2018-08-25T14:58:11.619Z,1.00
2018-08-25T15:00:39.478Z,0.80
2018-08-25T15:03:07.678Z,0.87
2018-08-25T15:05:35.530Z,0.60
2018-08-25T15:08:03.434Z,0.83
2018-08-25T15:10:31.224Z,1.13
2018-08-25T15:12:59.696Z,1.10
2018-08-25T15:15:27.695Z,1.10
2018-08-25T15:17:55.895Z,0.73
2018-08-25T15:20:23.715Z,0.90
2018-08-25T15:22:51.588Z,1.00
2018-08-25T15:25:19.431Z,0.97
2018-08-25T15:27:47.271Z,0.73
2018-08-25T15:30:15.141Z,0.93
2018-08-25T15:32:42.939Z,0.77
2018-08-25T15:35:10.706Z,1.40
2018-08-25T15:37:38.552Z,0.90
2018-08-25T15:40:06.456Z,1.47
2018-08-25T15:42:34.384Z,0.60
2018-08-25T15:45:02.261Z,0.97
2018-08-25T15:47:30.040Z,0.90
2018-08-25T15:49:57.872Z,0.80
2018-08-25T15:52:25.636Z,0.80
2018-08-25T15:54:53.503Z,0.70
2018-08-25T15:57:21.716Z,0.87
2018-08-25T15:59:49.658Z,1.00
2018-08-25T16:02:17.522Z,0.80
2018-08-25T16:04:45.399Z,1.10
2018-08-25T16:07:13.210Z,0.90
2018-08-25T16:09:42.060Z,1.03
2018-08-25T16:12:10.139Z,0.80
2018-08-25T16:14:37.816Z,1.40
2018-08-25T16:17:05.913Z,0.80
2018-08-25T16:19:33.747Z,1.30
2018-08-25T16:22:01.499Z,0.93
2018-08-25T16:24:29.359Z,1.20
2018-08-25T16:26:57.148Z,0.90
2018-08-25T16:29:24.940Z,0.63
2018-08-25T16:31:52.830Z,0.90
2018-08-25T16:34:20.603Z,1.20
2018-08-25T16:36:48.406Z,1.20
2018-08-25T16:39:16.244Z,1.03
2018-08-25T16:41:44.156Z,0.80
2018-08-25T16:44:12.010Z,0.80
2018-08-25T16:46:39.895Z,0.97
2018-08-25T16:49:07.703Z,1.60
2018-08-25T16:51:35.505Z,1.17
2018-08-25T16:54:03.395Z,1.27
2018-08-25T16:56:31.179Z,0.90
2018-08-25T16:58:59.025Z,1.40
2018-08-25T17:01:26.807Z,0.83
2018-08-25T17:03:54.694Z,1.63
2018-08-25T17:06:22.531Z,1.40
2018-08-25T17:08:50.301Z,1.10
2018-08-25T17:11:18.091Z,1.30
2018-08-25T17:13:45.882Z,1.20
2018-08-25T17:16:14.084Z,1.63
2018-08-25T17:18:41.951Z,2.07
2018-08-25T17:21:09.770Z,1.60
2018-08-25T17:23:37.567Z,1.63
2018-08-25T17:26:05.436Z,6.10
2018-08-25T17:28:33.221Z,6.97
2018-08-25T17:31:01.275Z,5.90
2018-08-25T17:33:29.183Z,5.97
2018-08-25T17:35:57.343Z,6.93
2018-08-25T17:38:25.124Z,5.50
2018-08-25T17:40:52.908Z,5.63
2018-08-25T17:43:20.695Z,4.90
2018-08-25T17:45:48.592Z,6.20
2018-08-25T17:48:16.432Z,5.20
2018-08-25T17:50:44.450Z,6.07
2018-08-25T17:53:12.391Z,5.30
2018-08-25T17:55:40.231Z,5.37
2018-08-25T17:58:08.142Z,5.63
2018-08-25T18:00:36.010Z,5.70
2018-08-25T18:03:03.914Z,5.53
2018-08-25T18:05:31.711Z,5.00
2018-08-25T18:07:59.491Z,5.43
2018-08-25T18:10:27.319Z,5.10
2018-08-25T18:12:55.118Z,6.47
2018-08-25T18:15:23.008Z,6.97
2018-08-25T18:17:50.790Z,7.27
2018-08-25T18:20:18.635Z,5.87
2018-08-25T18:22:46.491Z,5.07
2018-08-25T18:25:14.371Z,4.77
2018-08-25T18:27:42.183Z,4.33
2018-08-25T18:30:10.028Z,4.47
2018-08-25T18:32:37.932Z,4.93
2018-08-25T18:35:05.895Z,5.43
2018-08-25T18:37:33.767Z,5.70
2018-08-25T18:40:01.675Z,4.77
2018-08-25T18:42:29.455Z,3.90
2018-08-25T18:44:57.235Z,4.00
2018-08-25T18:47:25.012Z,4.33
2018-08-25T18:49:52.875Z,4.40
2018-08-25T18:52:20.654Z,5.90
2018-08-25T18:54:48.520Z,5.97
2018-08-25T18:57:16.274Z,4.43
2018-08-25T18:59:44.054Z,4.83
2018-08-25T19:02:11.993Z,4.40
2018-08-25T19:04:39.714Z,6.27
2018-08-25T19:07:07.638Z,8.40
2018-08-25T19:09:35.434Z,6.23
2018-08-25T19:12:03.267Z,4.73
2018-08-25T19:14:31.107Z,5.30
2018-08-25T19:16:58.907Z,5.57
2018-08-25T19:19:26.707Z,4.93
2018-08-25T19:21:54.556Z,4.23
2018-08-25T19:24:22.478Z,5.10
2018-08-25T19:26:50.325Z,6.67
2018-08-25T19:29:18.156Z,6.37
2018-08-25T19:31:45.967Z,7.30
2018-08-25T19:34:13.745Z,6.00
2018-08-25T19:36:41.606Z,4.83
2018-08-25T19:39:10.280Z,4.87
2018-08-25T19:41:38.286Z,4.93
2018-08-25T19:44:06.114Z,4.97
2018-08-25T19:46:33.967Z,5.03
2018-08-25T19:49:01.869Z,5.07
2018-08-25T19:51:29.744Z,4.77
2018-08-25T19:53:57.624Z,5.83
2018-08-25T19:56:25.511Z,6.00
2018-08-25T19:58:53.394Z,7.70
2018-08-25T20:01:21.316Z,6.20
2018-08-25T20:03:49.172Z,6.37
2018-08-25T20:06:16.968Z,5.60
2018-08-25T20:08:44.738Z,5.13
2018-08-25T20:11:12.541Z,6.80
2018-08-25T20:13:40.405Z,6.23
2018-08-25T20:16:08.340Z,5.03
2018-08-25T20:18:36.176Z,6.10
2018-08-25T20:21:04.147Z,6.27
2018-08-25T20:23:31.901Z,5.67
2018-08-25T20:25:59.670Z,5.30
2018-08-25T20:28:27.476Z,5.07
2018-08-25T20:30:55.334Z,5.17
2018-08-25T20:33:23.245Z,5.63
2018-08-25T20:35:51.102Z,4.53
2018-08-25T20:38:19.022Z,4.77
2018-08-25T20:40:46.832Z,4.67
2018-08-25T20:43:14.667Z,5.60
2018-08-25T20:45:42.665Z,5.07
2018-08-25T20:48:10.444Z,4.73
2018-08-25T20:50:38.304Z,4.87
2018-08-25T20:53:06.154Z,5.10
2018-08-25T20:55:33.965Z,5.87
2018-08-25T20:58:01.808Z,5.90
2018-08-25T21:00:29.664Z,5.77
2018-08-25T21:02:57.475Z,5.90
2018-08-25T21:05:25.316Z,6.10
2018-08-25T21:07:53.085Z,5.27
2018-08-25T21:10:20.895Z,5.60
2018-08-25T21:12:48.709Z,5.60
2018-08-25T21:15:16.545Z,6.10
2018-08-25T21:17:44.372Z,5.43
2018-08-25T21:20:12.202Z,6.30
2018-08-25T21:22:40.119Z,5.60
2018-08-25T21:25:07.992Z,5.77
2018-08-25T21:27:35.780Z,5.33
2018-08-25T21:30:03.575Z,5.50
2018-08-25T21:32:31.488Z,24.27
2018-08-25T21:34:59.266Z,10.00
2018-08-25T21:37:27.067Z,5.83
2018-08-25T21:39:54.946Z,5.50
2018-08-25T21:42:22.814Z,5.87
2018-08-25T21:44:50.918Z,5.00
2018-08-25T21:47:18.743Z,6.03
2018-08-25T21:49:46.713Z,6.33
2018-08-25T21:52:14.607Z,5.90
2018-08-25T21:54:42.486Z,6.13
2018-08-25T21:57:10.416Z,6.00
2018-08-25T21:59:38.250Z,6.13
2018-08-25T22:02:06.200Z,5.67
2018-08-25T22:04:33.967Z,5.30
2018-08-25T22:07:01.885Z,5.13
2018-08-25T22:09:29.650Z,5.33
2018-08-25T22:11:57.512Z,4.80
2018-08-25T22:14:25.302Z,5.80
2018-08-25T22:16:53.135Z,4.90
2018-08-25T22:19:21.031Z,5.43
2018-08-25T22:21:48.927Z,5.33
2018-08-25T22:24:16.742Z,5.53
2018-08-25T22:26:44.798Z,5.00
2018-08-25T22:29:12.575Z,4.80
2018-08-25T22:31:40.531Z,4.90
2018-08-25T22:34:08.324Z,4.90
2018-08-25T22:36:36.230Z,5.30
2018-08-25T22:39:05.892Z,5.50
2018-08-25T22:41:33.693Z,5.83
2018-08-25T22:44:01.556Z,6.13
2018-08-25T22:46:29.315Z,6.90
2018-08-25T22:48:57.268Z,6.57
2018-08-25T22:51:25.063Z,6.50
2018-08-25T22:53:52.875Z,5.80
2018-08-25T22:56:20.769Z,5.87
2018-08-25T22:58:48.551Z,7.33
2018-08-25T23:01:16.402Z,5.77
2018-08-25T23:03:44.160Z,6.53
2018-08-25T23:06:12.042Z,5.87
2018-08-25T23:08:39.815Z,5.13
2018-08-25T23:11:07.603Z,5.20
2018-08-25T23:13:35.451Z,5.37
2018-08-25T23:16:03.294Z,6.00
2018-08-25T23:18:31.080Z,5.17
2018-08-25T23:20:58.887Z,5.33
2018-08-25T23:23:26.777Z,5.53
2018-08-25T23:25:54.627Z,5.87
2018-08-25T23:28:22.443Z,7.77
2018-08-25T23:30:50.281Z,9.30
2018-08-25T23:33:18.058Z,8.13
2018-08-25T23:35:45.982Z,9.53
2018-08-25T23:38:13.996Z,8.90
2018-08-25T23:40:41.846Z,7.17
2018-08-25T23:43:09.651Z,6.23
2018-08-25T23:45:37.462Z,6.47
2018-08-25T23:48:05.422Z,6.10
2018-08-25T23:50:33.211Z,6.93
2018-08-25T23:53:01.165Z,6.27
2018-08-25T23:55:28.938Z,6.23
2018-08-25T23:57:56.833Z,6.33
